Weather observations for the past three days for
Cedar Rapids Airport
Metric (Imperial)
Date Time (cdt) Wind (kph) Vis. (km) Weather Sky Cond. Temperature (ºC) Relative Humidity Wind Chill (°C) Heat Index (°C) Pressure Precipitation (cm)
Air Dwpt 6 hour altimeter (cm) sea level (mb) 1 hr 3 hr 6 hr
Max. Min.
06 06:52 E 9 8.05 Fog/Mist BKN012 20 18.9 22.8 19.4 93% 76.38 1017.8
06 05:52 E 6 11.27 A Few Clouds FEW011 20 18.9 93% 76.35 1017.3
06 04:52 E 11 12.87 Fair CLR 20.6 19.4 93% 76.3 1016.6
06 03:52 E 15 14.48 Fair CLR 20.6 19.4 93% 76.25 1015.8
06 01:52 E 15 16.09 Fair CLR 22.2 20.6 91% 76.3 1016.5
06 00:52 E 9 14.48 Fair CLR 22.2 20.6 27.2 22.2 91% 76.3 1016.3
05 23:52 E 11 16.09 Fair CLR 23.3 21.1 88% 76.28 1016.0
05 22:52 E 15 16.09 Fair CLR 23.9 21.1 84% 24 76.28 1016.0
05 21:52 E 11 16.09 Fair CLR 23.9 21.7 88% 24 76.23 1015.4
05 20:52 E 13 16.09 Fair CLR 24.4 22.2 88% 25 76.15 1014.6
05 19:52 E 13 16.09 Fair CLR 25.6 21.7 79% 27 76.12 1014.2
05 18:52 E 20 16.09 NULL NULL 27.2 22.8 32.8 27.2 77% 30 76.1 1014.0
05 17:52 E 19 16.09 Fair CLR 30 24.4 72% 36 76.07 1013.4
05 16:52 NE 22 16.09 Fair CLR 32.2 24.4 63% 39 76.05 1013.1
05 15:52 N 9 16.09 A Few Clouds FEW040 32.8 23.3 57% 38 76.07 1013.3
05 12:52 NE 9 16.09 Fair CLR 30.6 24.4 31.1 22.2 70% 36 76.15 1014.5
05 11:52 NE 13 16.09 Fair CLR 30.6 24.4 70% 36 76.17 1014.7
05 10:52 NE 20 16.09 Fair CLR 29.4 23.9 72% 34 76.17 1014.6
05 09:52 N 13 14.48 Fair CLR 29.4 23.9 72% 34 76.12 1014.1
05 08:52 N 6 16.09 Fair CLR 27.2 23.9 82% 30 76.1 1013.7
05 07:52 N 6 16.09 Fair CLR 25 23.3 90% 26 76.05 1013.2
05 06:52 Calm 16.09 Fair CLR 22.8 22.2 25 22.2 96% 76 1012.5
05 05:52 Calm 16.09 Fog/Mist CLR 22.2 22.2 100% 76 1012.3
05 04:52 Calm 16.09 Fair CLR 24.4 22.8 91% 24 76 1012.2
05 03:52 Calm 12.87 Fair CLR 23.3 22.8 97% 76 1012.5
05 02:52 NE 9 14.48 Mostly Cloudy BKN060 25 23.3 90% 26 76.02 1012.7
05 01:52 SE 6 12.87 Fair CLR 24.4 23.3 94% 24 76.02 1012.6
05 00:52 Calm 12.87 Fair CLR 24.4 23.3 31.1 24.4 94% 24 76.02 1012.8
04 23:52 Calm 14.48 Fair CLR 25 23.3 90% 26 76 1012.4
04 22:52 NE 9 16.09 Fair CLR 27.2 23.3 79% 30 76 1012.1
04 21:52 S 6 16.09 Fair CLR 26.1 23.9 88% 28 75.95 1011.7
04 20:52 S 6 16.09 Fair CLR 26.7 23.9 85% 29 75.92 1011.5
04 19:52 Calm 14.48 Fair CLR 29.4 24.4 75% 35 75.95 1011.8
04 18:52 Calm 16.09 Mostly Cloudy BKN055 31.1 24.4 33.9 31.1 68% 37 75.97 1012.0
04 17:52 SW 7 16.09 Fair CLR 32.8 23.3 57% 38 75.95 1011.6
04 16:52 SW 11 16.09 Fair CLR 32.8 23.3 57% 38 75.92 1011.3
04 15:52 SW 24 G 39 16.09 Fair CLR 33.3 22.8 54% 38 75.9 1010.9
04 14:52 S 17 16.09 Fair CLR 33.3 22.8 54% 38 75.92 1011.3
04 13:52 S 24 16.09 Fair CLR 33.3 23.3 56% 39 75.97 1012.0
04 12:52 SW 17 16.09 A Few Clouds FEW120 32.2 22.8 33.3 22.8 58% 37 76.02 1012.6
04 11:52 SW 17 16.09 Mostly Cloudy BKN120 31.7 22.2 57% 36 76.02 1012.7
04 10:52 SW 20 G 33 16.09 Fair CLR 31.7 22.2 57% 36 76.02 1012.5
04 09:52 SW 11 16.09 Fair CLR 30 22.8 65% 34 76.02 1012.7
04 08:52 SW 11 16.09 Fair CLR 27.8 22.2 72% 30 76 1012.4
04 07:52 S 7 16.09 Fair CLR 24.4 21.7 85% 25 75.97 1012.1
04 06:52 S 9 16.09 Fair CLR 22.8 21.1 25 22.2 90% 75.95 1011.6
04 05:52 S 9 16.09 Fair CLR 22.8 21.1 90% 75.92 1011.4
04 04:52 S 7 16.09 Fair CLR 23.3 21.1 88% 75.92 1011.2
04 03:52 S 6 16.09 A Few Clouds FEW120 23.9 21.7 88% 24 75.87 1010.7
04 02:52 S 9 16.09 NULL NULL 23.3 21.7 91% 75.87 1010.5
04 01:52 S 11 16.09 NULL NULL 24.4 22.2 88% 25 75.9 1011.0
04 00:52 S 9 16.09 NULL NULL 24.4 22.8 31.1 24.4 91% 24 75.92 1011.4
03 23:52 S 7 16.09 NULL NULL 25.6 23.3 87% 27 75.92 1011.3
03 22:52 S 7 16.09 Fair CLR 26.1 23.3 85% 28 75.92 1011.3
03 21:52 S 9 16.09 Fair CLR 27.2 23.9 82% 30 75.9 1010.9
03 20:52 S 7 16.09 Fair CLR 27.8 23.9 79% 32 75.87 1010.6
03 19:52 S 11 16.09 Fair CLR 29.4 24.4 75% 35 75.82 1009.8
03 18:52 S 11 16.09 Fair CLR 30.6 24.4 34.4 30.6 70% 36 75.79 1009.6
03 17:52 S 17 16.09 Fair CLR 30.6 24.4 70% 36 75.77 1009.3
03 16:52 S 13 16.09 Fair CLR 31.7 23.9 63% 37 75.84 1010.3
03 15:52 SW 13 16.09 Fair CLR 33.9 22.2 50% 38 75.9 1011.0
03 14:52 S 11 16.09 Fair CLR 33.9 23.3 54% 40 75.95 1011.5
03 13:52 S 15 14.48 Fair CLR 33.3 22.8 54% 38 75.97 1011.8
03 12:52 SW 11 16.09 Fair CLR 32.2 22.2 32.2 23.3 56% 36 75.97 1012.0
03 11:52 SW 6 16.09 Fair CLR 31.7 22.8 59% 36 76 1012.5
03 10:52 Vrbl 9 16.09 Fair CLR 30 22.8 65% 34 76.05 1012.9
03 09:52 NE 9 16.09 Fair CLR 28.9 21.7 65% 32 76.02 1012.8
03 08:52 NE 7 16.09 Fair CLR 26.7 21.7 74% 29 76.02 1012.9
03 07:52 N 19 G 39 14.48 Fair CLR 25 21.1 79% 26 76.05 1013.1
Date Time (cdt) Wind (kph) Vis. (km) Weather Sky Cond. Air Dwpt Max. Min. Relative Humidity Wind Chill (°C) Heat Index (°C) altimeter (cm) sea level (mb) 1 hr 3 hr 6 hr
6 hour
Temperature (ºC) Pressure Precipitation (cm)